Murphy's Hourly Summary for Wednesday, March 15, 2017
Hour Temp
(f)
RH
(%)
Solar Rad.
(MJ/m2)
Rainfall
(in)
Wind
(mph)
3/15/2017 12:00 AM 51 55 0 0 1.15
3/15/2017 1:00 AM 49 50 0 0 4.67
3/15/2017 2:00 AM 47 54 0 0 4.11
3/15/2017 3:00 AM 45 56 0 0 4.1
3/15/2017 4:00 AM 45 58 0 0 4.36
3/15/2017 5:00 AM 46 60 0 0 5.1
3/15/2017 6:00 AM 45 63 0 0 4.72
3/15/2017 7:00 AM 44 66 0 0 4.84
3/15/2017 8:00 AM 44 67 0.02 0 5.02
3/15/2017 9:00 AM 44 66 0.21 0 5.23
3/15/2017 10:00 AM 45 65 0.71 0 5.55
3/15/2017 11:00 AM 46 62 1.48 0 5.78
3/15/2017 12:00 PM 48 57 2.11 0 5.6
3/15/2017 1:00 PM 51 53 2.81 0 5.24
3/15/2017 2:00 PM 55 49 2.77 0 4.68
3/15/2017 3:00 PM 57 46 3.08 0 5.59
3/15/2017 4:00 PM 59 44 2.81 0 5.81
3/15/2017 5:00 PM 60 43 2.18 0 4.62
3/15/2017 6:00 PM 61 44 1.23 0 5.19
3/15/2017 7:00 PM 61 45 0.22 0 5.09
3/15/2017 8:00 PM 60 49 0.04 0 3.79
3/15/2017 9:00 PM 57 52 0 0 2.8
3/15/2017 10:00 PM 55 56 0 0 1.84
3/15/2017 11:00 PM 53 61 0 0 1.84
Data Summary 51 55 19.67 0.00 4.45